San Perlita, Texas
Current Conditions -  °F | °C
As of 8:52 AM on Thursday 18 Dec 2014 (Local Time) from KHRL Reporting Station
Overcast Overcast  
Wind Chill: 23°   Ceiling: 5000
Heat Index: 23°   Visibility: 10mi
Dew Point: 21°   Wind: 7mph
Humidity: 87%   Direction: 170°S
Pressure: 30.04"   Gusts: NA
Location:  26.5°N, 97.64°W
Report Text: KHRL 181452Z 17006KT 10SM OVC050 23/21 A3004 RMK AO2 SLP173 T02280206 53021
Loading
Personal Weather Stations






























Interactive Weather Map New forecast layout! Learn more

10-Day Weather Forecast

Advertisements
Track Severe Weather on mobile